createdAt,value
2023-04-24T00:02:20.501Z,11.16
2023-04-24T00:04:48.376Z,11.09
2023-04-24T00:07:17.762Z,11.17
2023-04-24T00:09:45.866Z,11.22
2023-04-24T00:12:13.600Z,11.15
2023-04-24T00:14:41.868Z,11.26
2023-04-24T00:17:09.750Z,11.30
2023-04-24T00:19:39.011Z,11.34
2023-04-24T00:22:07.186Z,11.35
2023-04-24T00:24:35.968Z,11.36
2023-04-24T00:27:03.818Z,11.42
2023-04-24T00:29:31.500Z,11.42
2023-04-24T00:31:59.937Z,11.39
2023-04-24T00:34:27.818Z,11.35
2023-04-24T00:36:57.328Z,11.50
2023-04-24T00:39:25.188Z,11.47
2023-04-24T00:41:53.533Z,11.45
2023-04-24T00:44:21.329Z,11.24
2023-04-24T00:46:52.808Z,11.35
2023-04-24T00:49:20.969Z,11.13
2023-04-24T00:51:50.346Z,11.18
2023-04-24T00:54:19.970Z,11.12
2023-04-24T00:56:48.396Z,11.05
2023-04-24T00:59:18.420Z,11.02
2023-04-24T01:01:47.275Z,11.03
2023-04-24T01:04:16.436Z,11.07
2023-04-24T01:07:28.242Z,11.06
2023-04-24T01:09:59.862Z,11.08
2023-04-24T01:12:27.659Z,11.00
2023-04-24T01:14:56.286Z,11.07
2023-04-24T01:17:23.944Z,11.15
2023-04-24T01:19:54.735Z,11.21
2023-04-24T01:22:23.822Z,11.23
2023-04-24T01:24:51.731Z,11.28
2023-04-24T01:27:19.669Z,11.28
2023-04-24T01:29:48.568Z,11.30
2023-04-24T01:32:16.373Z,11.28
2023-04-24T01:34:45.343Z,11.42
2023-04-24T01:37:13.471Z,11.35
2023-04-24T01:39:43.448Z,11.22
2023-04-24T01:42:15.958Z,11.14
2023-04-24T01:44:44.914Z,11.09
2023-04-24T01:47:13.773Z,11.00
2023-04-24T01:49:42.738Z,10.96
2023-04-24T01:52:11.467Z,11.11
2023-04-24T01:54:39.370Z,11.09
2023-04-24T01:57:09.274Z,11.17
2023-04-24T01:59:37.941Z,11.38
2023-04-24T02:02:07.011Z,11.29
2023-04-24T02:04:37.654Z,11.34
2023-04-24T02:07:05.721Z,11.39
2023-04-24T02:09:34.615Z,11.48
2023-04-24T02:12:02.517Z,11.42
2023-04-24T02:14:31.594Z,11.44
2023-04-24T02:16:59.230Z,11.32
2023-04-24T02:19:26.920Z,11.20
2023-04-24T02:21:54.572Z,11.10
2023-04-24T02:24:22.314Z,11.07
2023-04-24T02:26:50.079Z,11.02
2023-04-24T02:29:17.823Z,10.98
2023-04-24T02:31:47.663Z,10.95
2023-04-24T02:34:17.224Z,10.88
2023-04-24T02:36:45.570Z,10.84
2023-04-24T02:39:14.364Z,10.81
2023-04-24T02:41:42.082Z,10.79
2023-04-24T02:44:10.710Z,10.83
2023-04-24T02:46:38.376Z,10.77
2023-04-24T02:49:07.735Z,10.79
2023-04-24T02:51:35.377Z,10.80
2023-04-24T02:54:02.956Z,10.82
2023-04-24T02:56:30.622Z,10.86
2023-04-24T02:59:00.991Z,10.88
2023-04-24T03:01:29.460Z,10.87
2023-04-24T03:03:57.438Z,10.86
2023-04-24T03:06:28.293Z,10.80
2023-04-24T03:08:56.061Z,10.79
2023-04-24T03:11:23.668Z,10.75
2023-04-24T03:13:51.901Z,10.77
2023-04-24T03:16:21.018Z,10.77
2023-04-24T03:18:48.759Z,10.75
2023-04-24T03:21:17.223Z,10.57
2023-04-24T03:23:47.138Z,10.62
2023-04-24T03:26:14.793Z,10.51
2023-04-24T03:28:53.960Z,10.58
2023-04-24T03:31:23.077Z,10.52
2023-04-24T03:33:51.011Z,10.43
2023-04-24T03:36:20.162Z,10.35
2023-04-24T03:38:49.397Z,10.28
2023-04-24T03:41:26.373Z,10.25
2023-04-24T03:44:03.906Z,10.21
2023-04-24T03:46:32.520Z,10.19
2023-04-24T03:49:02.872Z,10.15
2023-04-24T03:51:35.242Z,10.04
2023-04-24T03:54:20.341Z,9.93
2023-04-24T03:56:48.288Z,9.92
2023-04-24T03:59:16.119Z,9.93
2023-04-24T04:01:48.015Z,9.76
2023-04-24T04:04:18.067Z,9.71
2023-04-24T04:06:47.982Z,9.74
2023-04-24T04:09:15.948Z,9.83
2023-04-24T04:11:46.348Z,9.71
2023-04-24T04:14:14.606Z,9.63
2023-04-24T04:16:47.714Z,9.59
2023-04-24T04:19:15.919Z,9.54
2023-04-24T04:21:45.128Z,9.49
2023-04-24T04:24:25.581Z,9.56
2023-04-24T04:26:57.746Z,9.51
2023-04-24T04:29:37.466Z,9.48
2023-04-24T04:32:08.811Z,9.52
2023-04-24T04:34:38.640Z,9.51
2023-04-24T04:37:07.485Z,9.47
2023-04-24T04:39:54.700Z,9.47
2023-04-24T04:42:27.945Z,9.47
2023-04-24T04:44:57.030Z,9.46
2023-04-24T04:47:32.745Z,9.49
2023-04-24T04:50:02.331Z,9.42
2023-04-24T04:52:30.055Z,9.46
2023-04-24T04:55:08.810Z,9.53
2023-04-24T04:58:06.867Z,9.56
2023-04-24T05:00:36.822Z,9.58
2023-04-24T05:03:20.184Z,9.65
2023-04-24T05:05:53.167Z,9.71
2023-04-24T05:08:27.232Z,9.75
2023-04-24T05:10:56.068Z,9.80
2023-04-24T05:13:38.287Z,9.83
2023-04-24T05:16:11.008Z,9.81
2023-04-24T05:18:39.334Z,9.79
2023-04-24T05:21:09.744Z,9.75
2023-04-24T05:23:39.474Z,9.61
2023-04-24T05:26:08.106Z,9.70
2023-04-24T05:28:38.128Z,9.81
2023-04-24T05:31:10.282Z,9.79
2023-04-24T05:33:38.495Z,9.81
2023-04-24T05:36:08.429Z,9.89
2023-04-24T05:38:36.304Z,9.88
2023-04-24T05:41:04.754Z,9.92
2023-04-24T05:43:32.434Z,9.91
2023-04-24T05:46:01.673Z,9.94
2023-04-24T05:48:29.492Z,9.92
2023-04-24T05:50:57.260Z,9.87
2023-04-24T05:53:26.319Z,9.83
2023-04-24T05:55:55.144Z,9.89
2023-04-24T05:58:23.098Z,10.04
2023-04-24T06:00:51.981Z,10.05
2023-04-24T06:03:21.820Z,10.05
2023-04-24T06:05:52.829Z,10.24
2023-04-24T06:08:22.234Z,10.40
2023-04-24T06:10:51.288Z,10.50
2023-04-24T06:13:21.521Z,10.38
2023-04-24T06:16:08.036Z,10.33
2023-04-24T06:18:41.611Z,10.41
2023-04-24T06:21:09.622Z,10.65
2023-04-24T06:23:37.652Z,10.76
2023-04-24T06:26:05.533Z,10.88
2023-04-24T06:28:33.449Z,10.98
2023-04-24T06:31:01.358Z,11.08
2023-04-24T06:33:29.056Z,11.16
2023-04-24T06:35:59.992Z,11.30
2023-04-24T06:38:28.755Z,11.31
2023-04-24T06:40:57.102Z,11.32
2023-04-24T06:43:24.905Z,11.40
2023-04-24T06:45:52.955Z,11.27
2023-04-24T06:48:20.749Z,11.38
2023-04-24T06:50:48.845Z,11.59
2023-04-24T06:53:18.199Z,11.65
2023-04-24T06:55:47.063Z,11.71
2023-04-24T06:58:16.534Z,11.97
2023-04-24T07:00:44.633Z,12.02
2023-04-24T07:03:12.599Z,12.07
2023-04-24T07:05:41.040Z,12.11
2023-04-24T07:08:09.664Z,12.06
2023-04-24T07:10:39.539Z,12.40
2023-04-24T07:13:07.958Z,12.18
2023-04-24T07:15:35.937Z,11.88
2023-04-24T07:18:05.898Z,11.78
2023-04-24T07:20:34.248Z,12.07
2023-04-24T07:23:02.020Z,12.18
2023-04-24T07:25:29.741Z,12.31
2023-04-24T07:27:59.074Z,12.31
2023-04-24T07:30:27.116Z,12.17
2023-04-24T07:32:54.853Z,13.01
2023-04-24T07:35:22.754Z,12.80
2023-04-24T07:37:50.515Z,12.48
2023-04-24T07:40:18.452Z,12.59
2023-04-24T07:42:46.081Z,12.43
2023-04-24T07:45:15.295Z,12.37
2023-04-24T07:47:46.509Z,12.55
2023-04-24T07:50:14.636Z,12.45
2023-04-24T07:52:42.340Z,12.53
2023-04-24T07:55:10.203Z,12.51
2023-04-24T07:57:38.917Z,12.73
2023-04-24T08:00:07.790Z,13.01
2023-04-24T08:02:42.948Z,12.60
2023-04-24T08:05:11.498Z,12.32
2023-04-24T08:07:40.132Z,12.43
2023-04-24T08:10:09.072Z,12.52
2023-04-24T08:12:36.790Z,12.34
2023-04-24T08:15:05.060Z,12.34
2023-04-24T08:17:32.704Z,12.12
2023-04-24T08:20:03.349Z,12.45
2023-04-24T08:22:31.060Z,12.58
2023-04-24T08:24:59.447Z,12.46
2023-04-24T08:27:28.734Z,12.68
2023-04-24T08:29:56.902Z,12.67
2023-04-24T08:32:24.667Z,12.69
2023-04-24T08:34:53.691Z,12.78
2023-04-24T08:37:23.024Z,12.82
2023-04-24T08:39:51.139Z,12.91
2023-04-24T08:42:19.782Z,13.56
2023-04-24T08:44:48.075Z,13.62
2023-04-24T08:47:17.308Z,13.38
2023-04-24T08:49:46.554Z,13.33
2023-04-24T08:52:14.660Z,12.99
2023-04-24T08:54:46.476Z,12.34
2023-04-24T08:57:16.217Z,12.86
2023-04-24T08:59:45.359Z,12.79
2023-04-24T09:02:14.578Z,12.76
2023-04-24T09:04:43.574Z,12.72
2023-04-24T09:07:12.273Z,12.98
2023-04-24T09:09:41.596Z,12.78
2023-04-24T09:12:11.415Z,13.22
2023-04-24T09:14:43.494Z,13.07
2023-04-24T09:17:11.347Z,12.80
2023-04-24T09:19:39.417Z,12.87
2023-04-24T09:22:08.380Z,12.80
2023-04-24T09:24:37.452Z,12.87
2023-04-24T09:27:06.380Z,13.07
2023-04-24T09:29:35.720Z,12.71
2023-04-24T09:32:20.946Z,12.68
2023-04-24T09:34:50.115Z,12.99
2023-04-24T09:37:30.095Z,13.02
2023-04-24T09:40:11.254Z,12.88
2023-04-24T09:42:39.210Z,12.93
2023-04-24T09:45:15.392Z,13.53
2023-04-24T09:47:44.588Z,13.69
2023-04-24T09:50:14.883Z,13.79
2023-04-24T09:52:44.665Z,13.51
2023-04-24T09:55:19.731Z,13.80
2023-04-24T09:57:55.527Z,14.14
2023-04-24T10:00:29.221Z,14.94
2023-04-24T10:03:01.328Z,14.68
2023-04-24T10:05:31.069Z,15.13
2023-04-24T10:08:00.176Z,14.93
2023-04-24T10:10:28.160Z,15.47
2023-04-24T10:12:57.660Z,14.92
2023-04-24T10:15:28.153Z,14.73
2023-04-24T10:17:56.003Z,14.71
2023-04-24T10:20:26.403Z,13.50
2023-04-24T10:22:55.612Z,13.65
2023-04-24T10:25:26.138Z,13.72
2023-04-24T10:27:58.284Z,13.70
2023-04-24T10:30:28.594Z,13.80
2023-04-24T10:32:56.941Z,13.53
2023-04-24T10:35:27.845Z,13.38
2023-04-24T10:37:59.397Z,13.71
2023-04-24T10:40:29.157Z,13.65
2023-04-24T10:42:59.058Z,14.11
2023-04-24T10:45:28.846Z,14.15
2023-04-24T10:48:00.461Z,14.72
2023-04-24T10:50:30.511Z,15.09
2023-04-24T10:53:08.975Z,15.25
2023-04-24T10:55:48.631Z,14.66
2023-04-24T10:58:17.717Z,15.27
2023-04-24T11:00:58.653Z,14.85
2023-04-24T11:03:28.878Z,14.60
2023-04-24T11:06:01.998Z,14.85
2023-04-24T11:08:40.944Z,15.26
2023-04-24T11:11:13.731Z,15.58
2023-04-24T11:14:03.929Z,15.03
2023-04-24T11:16:35.514Z,15.01
2023-04-24T11:19:05.700Z,16.46
2023-04-24T11:21:34.785Z,15.27
2023-04-24T11:24:27.203Z,15.08
2023-04-24T11:26:57.572Z,14.81
2023-04-24T11:29:40.767Z,14.52
2023-04-24T11:32:37.673Z,13.97
2023-04-24T11:35:09.377Z,14.20
2023-04-24T11:37:38.660Z,14.73
2023-04-24T11:40:08.309Z,15.31
2023-04-24T11:42:36.633Z,15.71
2023-04-24T11:45:10.328Z,15.73
2023-04-24T11:47:39.463Z,15.94
2023-04-24T11:50:10.235Z,16.23
2023-04-24T11:52:39.949Z,15.56
2023-04-24T11:55:09.832Z,16.52
2023-04-24T11:57:37.848Z,16.36
2023-04-24T12:00:07.784Z,15.76
2023-04-24T12:02:43.009Z,15.31
2023-04-24T12:05:13.031Z,16.08
2023-04-24T12:07:44.048Z,16.24
2023-04-24T12:10:12.101Z,16.07
2023-04-24T12:12:39.863Z,15.89
2023-04-24T12:15:10.281Z,15.39
2023-04-24T12:17:38.806Z,15.63
2023-04-24T12:20:10.237Z,15.96
2023-04-24T12:22:48.374Z,16.32
2023-04-24T12:25:17.748Z,15.89
2023-04-24T12:27:46.255Z,15.61
2023-04-24T12:30:15.763Z,16.45
2023-04-24T12:32:45.366Z,16.69
2023-04-24T12:35:14.691Z,16.67
2023-04-24T12:37:47.268Z,16.00
2023-04-24T12:40:16.461Z,15.96
2023-04-24T12:42:45.885Z,15.66
2023-04-24T12:45:14.032Z,15.45
2023-04-24T12:47:42.319Z,15.29
2023-04-24T12:50:11.781Z,14.75
2023-04-24T12:52:41.488Z,14.16
2023-04-24T12:55:10.009Z,13.76
2023-04-24T12:57:39.730Z,13.79
2023-04-24T13:00:09.620Z,14.62
2023-04-24T13:02:38.289Z,15.51
2023-04-24T13:05:06.668Z,15.59
2023-04-24T13:07:35.146Z,15.84
2023-04-24T13:10:04.851Z,16.46
2023-04-24T13:12:32.471Z,16.55
2023-04-24T13:15:00.727Z,16.28
2023-04-24T13:17:28.561Z,15.96
2023-04-24T13:19:57.063Z,15.81
2023-04-24T13:22:24.853Z,15.36
2023-04-24T13:24:52.813Z,15.10
2023-04-24T13:27:22.187Z,14.90
2023-04-24T13:29:50.096Z,14.51
2023-04-24T13:32:18.319Z,14.54
2023-04-24T13:34:46.288Z,14.45
2023-04-24T13:37:14.284Z,14.41
2023-04-24T13:39:43.209Z,14.17
2023-04-24T13:42:12.326Z,14.08
2023-04-24T13:44:42.134Z,14.09
2023-04-24T13:47:09.969Z,14.39
2023-04-24T13:49:38.466Z,14.38
2023-04-24T13:52:06.613Z,14.31
2023-04-24T13:54:34.577Z,14.24
2023-04-24T13:57:02.965Z,14.44
2023-04-24T13:59:30.675Z,14.51
2023-04-24T14:01:59.756Z,14.60
2023-04-24T14:04:27.962Z,14.54
2023-04-24T14:06:55.883Z,14.74
2023-04-24T14:09:23.562Z,14.84
2023-04-24T14:11:51.921Z,14.93
2023-04-24T14:14:19.594Z,14.91
2023-04-24T14:16:47.301Z,14.98
2023-04-24T14:19:16.833Z,14.99
2023-04-24T14:21:44.817Z,14.75
2023-04-24T14:24:12.465Z,14.42
2023-04-24T14:26:40.095Z,14.79
2023-04-24T14:29:14.787Z,15.38
2023-04-24T14:31:44.137Z,15.63
2023-04-24T14:34:12.119Z,15.73
2023-04-24T14:36:42.299Z,15.53
2023-04-24T14:39:11.211Z,15.21
2023-04-24T14:41:40.222Z,14.88
2023-04-24T14:44:08.278Z,14.86
2023-04-24T14:46:36.318Z,14.87
2023-04-24T14:49:04.175Z,15.11
2023-04-24T14:51:32.353Z,15.24
2023-04-24T14:54:01.505Z,15.07
2023-04-24T14:56:29.320Z,14.57
2023-04-24T14:58:57.371Z,14.58
2023-04-24T15:01:26.115Z,14.40
2023-04-24T15:03:54.074Z,14.27
2023-04-24T15:06:22.082Z,14.22
2023-04-24T15:08:50.739Z,14.43
2023-04-24T15:11:20.890Z,15.33
2023-04-24T15:13:48.913Z,15.11
2023-04-24T15:16:16.960Z,14.91
2023-04-24T15:18:44.851Z,14.63
2023-04-24T15:21:14.144Z,14.55
2023-04-24T15:23:41.823Z,14.34
2023-04-24T15:26:09.559Z,14.39
2023-04-24T15:28:38.594Z,14.33
2023-04-24T15:31:06.523Z,14.29
2023-04-24T15:33:34.839Z,14.26
2023-04-24T15:36:02.684Z,14.10
2023-04-24T15:38:30.480Z,14.04
2023-04-24T15:40:58.161Z,14.48
2023-04-24T15:43:25.874Z,14.61
2023-04-24T15:45:55.205Z,14.61
2023-04-24T15:48:23.003Z,14.67
2023-04-24T15:50:51.295Z,14.45
2023-04-24T15:53:22.194Z,14.88
2023-04-24T15:55:50.707Z,14.46
2023-04-24T15:58:19.347Z,14.14
2023-04-24T16:00:47.414Z,14.03
2023-04-24T16:03:16.744Z,13.87
2023-04-24T16:05:44.665Z,14.06
2023-04-24T16:08:14.132Z,14.25
2023-04-24T16:10:42.173Z,14.08
2023-04-24T16:13:09.964Z,14.07
2023-04-24T16:15:37.786Z,14.10
2023-04-24T16:18:05.754Z,13.99
2023-04-24T16:20:34.899Z,13.88
2023-04-24T16:23:03.040Z,13.90
2023-04-24T16:25:31.136Z,13.72
2023-04-24T16:27:58.901Z,13.85
2023-04-24T16:30:27.231Z,13.83
2023-04-24T16:32:55.122Z,13.73
2023-04-24T16:35:23.137Z,13.79
2023-04-24T16:37:52.454Z,13.74
2023-04-24T16:40:20.484Z,13.55
2023-04-24T16:42:48.655Z,13.42
2023-04-24T16:45:16.430Z,13.38
2023-04-24T16:47:44.189Z,13.30
2023-04-24T16:50:12.716Z,13.28
2023-04-24T16:52:40.860Z,13.34
2023-04-24T16:55:11.529Z,13.41
2023-04-24T16:57:39.332Z,13.52
2023-04-24T17:00:08.764Z,13.32
2023-04-24T17:02:36.927Z,13.19
2023-04-24T17:05:05.011Z,13.22
2023-04-24T17:07:33.174Z,13.11
2023-04-24T17:10:01.480Z,13.23
2023-04-24T17:12:30.716Z,13.21
2023-04-24T17:14:58.380Z,13.25
2023-04-24T17:17:26.022Z,13.31
2023-04-24T17:19:54.726Z,13.21
2023-04-24T17:22:22.633Z,13.03
2023-04-24T17:24:50.330Z,12.95
2023-04-24T17:27:18.209Z,13.05
2023-04-24T17:29:49.661Z,12.87
2023-04-24T17:32:17.634Z,13.00
2023-04-24T17:34:45.479Z,12.85
2023-04-24T17:37:13.225Z,12.96
2023-04-24T17:39:41.258Z,13.06
2023-04-24T17:42:08.960Z,12.88
2023-04-24T17:44:36.833Z,12.68
2023-04-24T17:47:05.956Z,12.60
2023-04-24T17:49:34.090Z,12.55
2023-04-24T17:52:01.774Z,12.84
2023-04-24T17:54:29.466Z,12.51
2023-04-24T17:56:57.894Z,12.25
2023-04-24T17:59:26.407Z,12.09
2023-04-24T18:01:54.252Z,12.06
2023-04-24T18:04:25.167Z,11.86
2023-04-24T18:06:54.269Z,11.62
2023-04-24T18:09:21.961Z,11.57
2023-04-24T18:11:50.210Z,11.41
2023-04-24T18:14:18.256Z,11.31
2023-04-24T18:16:46.098Z,11.30
2023-04-24T18:19:13.722Z,11.24
2023-04-24T18:21:42.881Z,11.18
2023-04-24T18:24:10.752Z,11.21
2023-04-24T18:26:39.051Z,11.24
2023-04-24T18:29:06.894Z,11.29
2023-04-24T18:31:34.778Z,11.30
2023-04-24T18:34:02.622Z,11.18
2023-04-24T18:36:30.369Z,11.18
2023-04-24T18:39:00.870Z,11.08
2023-04-24T18:41:28.652Z,11.17
2023-04-24T18:43:58.519Z,11.09
2023-04-24T18:46:26.523Z,11.11
2023-04-24T18:48:54.213Z,11.12
2023-04-24T18:51:21.957Z,11.01
2023-04-24T18:53:50.313Z,11.04
2023-04-24T18:56:19.570Z,11.11
2023-04-24T18:58:47.485Z,11.03
2023-04-24T19:01:15.805Z,11.06
2023-04-24T19:03:43.739Z,11.05
2023-04-24T19:06:11.668Z,11.06
2023-04-24T19:08:39.687Z,11.07
2023-04-24T19:11:07.370Z,11.07
2023-04-24T19:13:36.736Z,11.08
2023-04-24T19:16:04.530Z,11.04
2023-04-24T19:18:32.303Z,11.06
2023-04-24T19:20:59.967Z,11.02
2023-04-24T19:23:28.150Z,10.98
2023-04-24T19:25:55.802Z,10.97
2023-04-24T19:28:23.490Z,10.98
2023-04-24T19:30:53.228Z,11.11
2023-04-24T19:33:21.000Z,11.20
2023-04-24T19:35:49.158Z,11.28
2023-04-24T19:38:16.900Z,11.28
2023-04-24T19:40:44.934Z,11.21
2023-04-24T19:43:12.662Z,11.06
2023-04-24T19:45:40.518Z,11.00
2023-04-24T19:48:09.870Z,11.03
2023-04-24T19:50:37.539Z,11.06
2023-04-24T19:53:06.373Z,11.13
2023-04-24T19:55:34.122Z,11.11
2023-04-24T19:58:02.103Z,11.14
2023-04-24T20:00:30.971Z,11.16
2023-04-24T20:02:58.812Z,11.07
2023-04-24T20:05:28.472Z,11.03
2023-04-24T20:07:56.378Z,10.98
2023-04-24T20:10:24.334Z,10.92
2023-04-24T20:12:52.305Z,10.91
2023-04-24T20:15:20.147Z,10.92
2023-04-24T20:17:48.438Z,10.92
2023-04-24T20:20:16.120Z,10.89
2023-04-24T20:22:45.581Z,10.84
2023-04-24T20:25:14.237Z,10.88
2023-04-24T20:27:42.103Z,10.93
2023-04-24T20:30:13.032Z,10.88
2023-04-24T20:32:41.166Z,10.95
2023-04-24T20:35:10.224Z,10.88
2023-04-24T20:37:37.879Z,10.86
2023-04-24T20:40:09.704Z,10.85
2023-04-24T20:42:38.464Z,10.82
2023-04-24T20:45:08.334Z,10.78
2023-04-24T20:47:36.824Z,10.80
2023-04-24T20:50:06.189Z,10.73
2023-04-24T20:52:34.071Z,10.69
2023-04-24T20:55:01.838Z,10.69
2023-04-24T20:57:31.161Z,10.63
2023-04-24T20:59:58.824Z,10.56
2023-04-24T21:02:26.740Z,10.60
2023-04-24T21:04:54.520Z,10.53
2023-04-24T21:07:22.341Z,10.54
2023-04-24T21:09:50.008Z,10.55
2023-04-24T21:12:18.039Z,10.50
2023-04-24T21:14:48.131Z,10.63
2023-04-24T21:17:18.262Z,10.68
2023-04-24T21:19:45.900Z,10.66
2023-04-24T21:22:13.535Z,10.72
2023-04-24T21:24:41.309Z,10.73
2023-04-24T21:27:09.172Z,10.69
2023-04-24T21:29:36.958Z,10.67
2023-04-24T21:32:06.150Z,10.70
2023-04-24T21:34:33.875Z,10.68
2023-04-24T21:37:01.485Z,10.54
2023-04-24T21:39:29.352Z,10.50
2023-04-24T21:41:58.479Z,10.44
2023-04-24T21:44:26.818Z,10.44
2023-04-24T21:46:54.850Z,10.40
2023-04-24T21:49:24.218Z,10.34
2023-04-24T21:51:53.217Z,10.29
2023-04-24T21:54:21.215Z,10.33
2023-04-24T21:56:48.883Z,10.27
2023-04-24T21:59:16.601Z,10.16
2023-04-24T22:01:44.600Z,10.11
2023-04-24T22:04:12.688Z,9.99
2023-04-24T22:06:42.238Z,10.11
2023-04-24T22:09:10.929Z,10.03
2023-04-24T22:11:39.199Z,10.01
2023-04-24T22:14:07.175Z,9.98
2023-04-24T22:16:35.240Z,9.96
2023-04-24T22:19:04.858Z,9.83
2023-04-24T22:21:33.410Z,9.69
2023-04-24T22:24:03.072Z,9.59
2023-04-24T22:26:30.708Z,9.60
2023-04-24T22:28:58.534Z,9.49
2023-04-24T22:31:26.271Z,9.49
2023-04-24T22:33:54.025Z,9.42
2023-04-24T22:36:21.781Z,9.34
2023-04-24T22:38:49.424Z,9.45
2023-04-24T22:41:18.925Z,9.37
2023-04-24T22:43:47.338Z,9.32
2023-04-24T22:46:15.529Z,9.32
2023-04-24T22:48:44.043Z,9.32
2023-04-24T22:51:11.815Z,9.27
2023-04-24T22:53:39.583Z,9.26
2023-04-24T22:56:08.198Z,9.28
2023-04-24T22:58:37.273Z,9.27
2023-04-24T23:01:05.734Z,9.38
2023-04-24T23:03:35.616Z,9.32
2023-04-24T23:06:04.720Z,9.29
2023-04-24T23:08:32.484Z,9.26
2023-04-24T23:11:00.719Z,9.18
2023-04-24T23:13:28.441Z,9.15
2023-04-24T23:15:57.827Z,9.17
2023-04-24T23:18:25.604Z,9.32
2023-04-24T23:20:53.275Z,9.14
2023-04-24T23:23:21.296Z,9.14
2023-04-24T23:25:49.230Z,9.10
2023-04-24T23:28:16.932Z,9.04
2023-04-24T23:30:44.784Z,9.01
2023-04-24T23:33:14.845Z,9.11
2023-04-24T23:35:42.809Z,9.11
2023-04-24T23:38:10.887Z,9.03
2023-04-24T23:40:38.966Z,9.09
2023-04-24T23:43:08.496Z,9.04
2023-04-24T23:45:37.472Z,9.08
2023-04-24T23:48:06.051Z,9.10
2023-04-24T23:50:35.165Z,9.05
2023-04-24T23:53:02.898Z,9.06
2023-04-24T23:55:31.126Z,9.07
2023-04-24T23:57:58.964Z,9.09
